<?xml version="1.0" encoding="UTF-8" standalone="no" ?><gpx xmlns="http://www.topografix.com/GPX/1/1" xmlns:gpxx="http://www.garmin.com/xmlschemas/GpxExtensions/v3" xmlns:wptx1="http://www.garmin.com/xmlschemas/WaypointExtension/v1" xmlns:gpxtpx="http://www.garmin.com/xmlschemas/TrackPointExtension/v1" creator="Dakota 20" version="1.1" xmlns:xsi="http://www.w3.org/2001/XMLSchema-instance" xsi:schemaLocation="http://www.topografix.com/GPX/1/1 http://www.topografix.com/GPX/1/1/gpx.xsd http://www.garmin.com/xmlschemas/GpxExtensions/v3 http://www8.garmin.com/xmlschemas/GpxExtensionsv3.xsd http://www.garmin.com/xmlschemas/WaypointExtension/v1 http://www8.garmin.com/xmlschemas/WaypointExtensionv1.xsd http://www.garmin.com/xmlschemas/TrackPointExtension/v1 http://www.garmin.com/xmlschemas/TrackPointExtensionv1.xsd"><metadata><link href="http://www.garmin.com"><text>Garmin International</text></link><time>2015-08-26T14:51:26Z</time></metadata><trk><name>Current Track: 26 AUG 2015 09:58</name><extensions><gpxx:TrackExtension><gpxx:DisplayColor>Cyan</gpxx:DisplayColor></gpxx:TrackExtension></extensions><trkseg><trkpt lat="52.0699143782" lon="-2.1146659087"><ele>28.50</ele><time>2015-08-26T08:58:12Z</time></trkpt><trkpt lat="52.0699164737" lon="-2.1146643162"><ele>27.05</ele><time>2015-08-26T08:58:36Z</time></trkpt><trkpt lat="52.0700008795" lon="-2.1147178765"><ele>27.05</ele><time>2015-08-26T08:58:48Z</time></trkpt><trkpt lat="52.0701319724" lon="-2.1148144361"><ele>28.02</ele><time>2015-08-26T08:59:03Z</time></trkpt><trkpt lat="52.0702308789" lon="-2.1148944832"><ele>28.02</ele><time>2015-08-26T08:59:13Z</time></trkpt><trkpt lat="52.0704663265" lon="-2.1150192060"><ele>28.02</ele><time>2015-08-26T08:59:33Z</time></trkpt><trkpt lat="52.0706923027" lon="-2.1151365526"><ele>28.98</ele><time>2015-08-26T08:59:54Z</time></trkpt><trkpt lat="52.0708449371" lon="-2.1152107324"><ele>26.57</ele><time>2015-08-26T09:00:09Z</time></trkpt><trkpt lat="52.0708522294" lon="-2.1152205393"><ele>27.53</ele><time>2015-08-26T09:00:14Z</time></trkpt><trkpt lat="52.0708571747" lon="-2.1152176894"><ele>27.05</ele><time>2015-08-26T09:00:16Z</time></trkpt><trkpt lat="52.0708594378" lon="-2.1152163483"><ele>28.98</ele><time>2015-08-26T09:00:17Z</time></trkpt><trkpt lat="52.0708772913" lon="-2.1152062900"><ele>28.02</ele><time>2015-08-26T09:00:24Z</time></trkpt><trkpt lat="52.0709065441" lon="-2.1151896939"><ele>32.82</ele><time>2015-08-26T09:00:36Z</time></trkpt><trkpt lat="52.0709098130" lon="-2.1151878498"><ele>29.94</ele><time>2015-08-26T09:00:37Z</time></trkpt><trkpt lat="52.0709222183" lon="-2.1151808091"><ele>28.50</ele><time>2015-08-26T09:00:42Z</time></trkpt><trkpt lat="52.0709176920" lon="-2.1151782945"><ele>28.02</ele><time>2015-08-26T09:00:44Z</time></trkpt><trkpt lat="52.0711198635" lon="-2.1153652947"><ele>28.02</ele><time>2015-08-26T09:01:00Z</time></trkpt><trkpt lat="52.0712492801" lon="-2.1154238842"><ele>28.50</ele><time>2015-08-26T09:01:11Z</time></trkpt><trkpt lat="52.0714040939" lon="-2.1155036800"><ele>28.02</ele><time>2015-08-26T09:01:24Z</time></trkpt><trkpt lat="52.0714190975" lon="-2.1155085415"><ele>28.02</ele><time>2015-08-26T09:01:25Z</time></trkpt><trkpt lat="52.0715994760" lon="-2.1155567374"><ele>28.50</ele><time>2015-08-26T09:01:39Z</time></trkpt><trkpt lat="52.0716653578" lon="-2.1155890916"><ele>28.98</ele><time>2015-08-26T09:01:44Z</time></trkpt><trkpt lat="52.0718147233" lon="-2.1156759281"><ele>28.98</ele><time>2015-08-26T09:01:59Z</time></trkpt><trkpt lat="52.0719140489" lon="-2.1156987268"><ele>29.94</ele><time>2015-08-26T09:02:04Z</time></trkpt><trkpt lat="52.0720712934" lon="-2.1155588329"><ele>30.42</ele><time>2015-08-26T09:02:19Z</time></trkpt><trkpt lat="52.0721686073" lon="-2.1155607607"><ele>30.42</ele><time>2015-08-26T09:02:28Z</time></trkpt><trkpt lat="52.0723870397" lon="-2.1155602578"><ele>29.94</ele><time>2015-08-26T09:02:45Z</time></trkpt><trkpt lat="52.0725353993" lon="-2.1155464277"><ele>30.42</ele><time>2015-08-26T09:03:01Z</time></trkpt><trkpt lat="52.0727399178" lon="-2.1155291609"><ele>31.38</ele><time>2015-08-26T09:03:20Z</time></trkpt><trkpt lat="52.0729049575" lon="-2.1155729983"><ele>31.86</ele><time>2015-08-26T09:03:39Z</time></trkpt><trkpt lat="52.0731018484" lon="-2.1156096272"><ele>31.86</ele><time>2015-08-26T09:03:55Z</time></trkpt><trkpt lat="52.0732077956" lon="-2.1156185959"><ele>31.38</ele><time>2015-08-26T09:04:06Z</time></trkpt><trkpt lat="52.0733399782" lon="-2.1156668756"><ele>31.86</ele><time>2015-08-26T09:04:19Z</time></trkpt><trkpt lat="52.0734904334" lon="-2.1157134790"><ele>31.86</ele><time>2015-08-26T09:04:35Z</time></trkpt><trkpt lat="52.0736531261" lon="-2.1156957932"><ele>31.86</ele><time>2015-08-26T09:04:54Z</time></trkpt><trkpt lat="52.0737490989" lon="-2.1156767663"><ele>32.34</ele><time>2015-08-26T09:05:04Z</time></trkpt><trkpt lat="52.0738962851" lon="-2.1156952903"><ele>31.86</ele><time>2015-08-26T09:05:16Z</time></trkpt><trkpt lat="52.0739330817" lon="-2.1157118864"><ele>31.38</ele><time>2015-08-26T09:05:21Z</time></trkpt><trkpt lat="52.0741083473" lon="-2.1157008223"><ele>31.86</ele><time>2015-08-26T09:05:35Z</time></trkpt><trkpt lat="52.0743186492" lon="-2.1156495251"><ele>31.86</ele><time>2015-08-26T09:05:53Z</time></trkpt><trkpt lat="52.0744617283" lon="-2.1156063583"><ele>31.38</ele><time>2015-08-26T09:06:10Z</time></trkpt><trkpt lat="52.0744867902" lon="-2.1155849844"><ele>31.38</ele><time>2015-08-26T09:06:32Z</time></trkpt><trkpt lat="52.0745349023" lon="-2.1155563183"><ele>31.38</ele><time>2015-08-26T09:06:58Z</time></trkpt><trkpt lat="52.0747230761" lon="-2.1154972259"><ele>30.90</ele><time>2015-08-26T09:07:15Z</time></trkpt><trkpt lat="52.0748946536" lon="-2.1154523827"><ele>31.38</ele><time>2015-08-26T09:07:30Z</time></trkpt><trkpt lat="52.0750504732" lon="-2.1153729223"><ele>31.38</ele><time>2015-08-26T09:07:45Z</time></trkpt><trkpt lat="52.0751290955" lon="-2.1153779514"><ele>30.90</ele><time>2015-08-26T09:07:51Z</time></trkpt><trkpt lat="52.0753482822" lon="-2.1153345332"><ele>30.90</ele><time>2015-08-26T09:08:08Z</time></trkpt><trkpt lat="52.0755047724" lon="-2.1153405681"><ele>29.94</ele><time>2015-08-26T09:08:22Z</time></trkpt><trkpt lat="52.0755974762" lon="-2.1153986547"><ele>29.94</ele><time>2015-08-26T09:08:36Z</time></trkpt><trkpt lat="52.0757198520" lon="-2.1154104732"><ele>29.46</ele><time>2015-08-26T09:08:48Z</time></trkpt><trkpt lat="52.0758979674" lon="-2.1154247224"><ele>28.98</ele><time>2015-08-26T09:09:05Z</time></trkpt><trkpt lat="52.0760749094" lon="-2.1154491976"><ele>27.05</ele><time>2015-08-26T09:09:22Z</time></trkpt><trkpt lat="52.0762335788" lon="-2.1154781990"><ele>25.13</ele><time>2015-08-26T09:09:37Z</time></trkpt><trkpt lat="52.0764153823" lon="-2.1154899336"><ele>24.17</ele><time>2015-08-26T09:09:53Z</time></trkpt><trkpt lat="52.0765977725" lon="-2.1154994052"><ele>21.77</ele><time>2015-08-26T09:10:12Z</time></trkpt><trkpt lat="52.0767110121" lon="-2.1154416539"><ele>20.81</ele><time>2015-08-26T09:10:29Z</time></trkpt><trkpt lat="52.0768853556" lon="-2.1153517999"><ele>19.84</ele><time>2015-08-26T09:10:46Z</time></trkpt><trkpt lat="52.0770773012" lon="-2.1152671427"><ele>18.88</ele><time>2015-08-26T09:11:05Z</time></trkpt><trkpt lat="52.0771367289" lon="-2.1152321063"><ele>18.40</ele><time>2015-08-26T09:11:12Z</time></trkpt><trkpt lat="52.0771677420" lon="-2.1152238920"><ele>18.88</ele><time>2015-08-26T09:11:14Z</time></trkpt><trkpt lat="52.0773301832" lon="-2.1151488740"><ele>17.92</ele><time>2015-08-26T09:11:26Z</time></trkpt><trkpt lat="52.0773539878" lon="-2.1151418332"><ele>17.92</ele><time>2015-08-26T09:11:28Z</time></trkpt><trkpt lat="52.0775522199" lon="-2.1151073836"><ele>17.44</ele><time>2015-08-26T09:11:48Z</time></trkpt><trkpt lat="52.0777375437" lon="-2.1151156817"><ele>16.48</ele><time>2015-08-26T09:12:04Z</time></trkpt><trkpt lat="52.0779107977" lon="-2.1151544899"><ele>16.00</ele><time>2015-08-26T09:12:20Z</time></trkpt><trkpt lat="52.0780766755" lon="-2.1151924599"><ele>16.48</ele><time>2015-08-26T09:12:36Z</time></trkpt><trkpt lat="52.0782399550" lon="-2.1152206231"><ele>16.48</ele><time>2015-08-26T09:12:51Z</time></trkpt><trkpt lat="52.0784388576" lon="-2.1152619459"><ele>16.00</ele><time>2015-08-26T09:13:09Z</time></trkpt><trkpt lat="52.0786130335" lon="-2.1152881812"><ele>16.00</ele><time>2015-08-26T09:13:25Z</time></trkpt><trkpt lat="52.0787474792" lon="-2.1152766142"><ele>16.00</ele><time>2015-08-26T09:13:39Z</time></trkpt><trkpt lat="52.0788774826" lon="-2.1152385604"><ele>16.00</ele><time>2015-08-26T09:13:54Z</time></trkpt><trkpt lat="52.0789633133" lon="-2.1151879337"><ele>16.00</ele><time>2015-08-26T09:14:11Z</time></trkpt><trkpt lat="52.0790333860" lon="-2.1151396539"><ele>16.00</ele><time>2015-08-26T09:14:28Z</time></trkpt><trkpt lat="52.0790439472" lon="-2.1151492093"><ele>15.52</ele><time>2015-08-26T09:14:48Z</time></trkpt><trkpt lat="52.0790843479" lon="-2.1152417455"><ele>15.04</ele><time>2015-08-26T09:14:59Z</time></trkpt><trkpt lat="52.0792178717" lon="-2.1155023389"><ele>16.00</ele><time>2015-08-26T09:15:15Z</time></trkpt><trkpt lat="52.0793169457" lon="-2.1157691348"><ele>16.00</ele><time>2015-08-26T09:15:29Z</time></trkpt><trkpt lat="52.0794324484" lon="-2.1160345059"><ele>16.00</ele><time>2015-08-26T09:15:46Z</time></trkpt><trkpt lat="52.0795319416" lon="-2.1162663493"><ele>15.52</ele><time>2015-08-26T09:16:02Z</time></trkpt><trkpt lat="52.0796031039" lon="-2.1164708678"><ele>16.96</ele><time>2015-08-26T09:16:16Z</time></trkpt><trkpt lat="52.0796807203" lon="-2.1166690998"><ele>15.52</ele><time>2015-08-26T09:16:31Z</time></trkpt><trkpt lat="52.0797712449" lon="-2.1168627217"><ele>15.04</ele><time>2015-08-26T09:16:46Z</time></trkpt><trkpt lat="52.0798409823" lon="-2.1170850936"><ele>15.04</ele><time>2015-08-26T09:17:01Z</time></trkpt><trkpt lat="52.0798616856" lon="-2.1171680745"><ele>15.52</ele><time>2015-08-26T09:17:08Z</time></trkpt><trkpt lat="52.0798738394" lon="-2.1172151808"><ele>15.04</ele><time>2015-08-26T09:17:11Z</time></trkpt><trkpt lat="52.0799395535" lon="-2.1174424980"><ele>15.52</ele><time>2015-08-26T09:17:26Z</time></trkpt><trkpt lat="52.0799941197" lon="-2.1176671330"><ele>15.04</ele><time>2015-08-26T09:17:41Z</time></trkpt><trkpt lat="52.0800544694" lon="-2.1178759262"><ele>14.56</ele><time>2015-08-26T09:17:55Z</time></trkpt><trkpt lat="52.0801130589" lon="-2.1180480905"><ele>15.04</ele><time>2015-08-26T09:18:07Z</time></trkpt><trkpt lat="52.0801990572" lon="-2.1182697918"><ele>15.04</ele><time>2015-08-26T09:18:22Z</time></trkpt><trkpt lat="52.0802689623" lon="-2.1184968576"><ele>15.04</ele><time>2015-08-26T09:18:39Z</time></trkpt><trkpt lat="52.0803464949" lon="-2.1187316347"><ele>15.04</ele><time>2015-08-26T09:18:57Z</time></trkpt><trkpt lat="52.0804214291" lon="-2.1188923158"><ele>14.56</ele><time>2015-08-26T09:19:13Z</time></trkpt><trkpt lat="52.0804468263" lon="-2.1190207265"><ele>14.56</ele><time>2015-08-26T09:19:24Z</time></trkpt><trkpt lat="52.0805510134" lon="-2.1192638017"><ele>15.52</ele><time>2015-08-26T09:19:40Z</time></trkpt><trkpt lat="52.0806557871" lon="-2.1194513049"><ele>15.04</ele><time>2015-08-26T09:19:58Z</time></trkpt><trkpt lat="52.0806939248" lon="-2.1195657179"><ele>14.56</ele><time>2015-08-26T09:20:13Z</time></trkpt><trkpt lat="52.0807004627" lon="-2.1197661292"><ele>15.52</ele><time>2015-08-26T09:20:29Z</time></trkpt><trkpt lat="52.0807241835" lon="-2.1198748425"><ele>13.60</ele><time>2015-08-26T09:20:37Z</time></trkpt><trkpt lat="52.0807292126" lon="-2.1199133154"><ele>14.56</ele><time>2015-08-26T09:20:39Z</time></trkpt><trkpt lat="52.0807349123" lon="-2.1199569013"><ele>14.08</ele><time>2015-08-26T09:20:41Z</time></trkpt><trkpt lat="52.0807305537" lon="-2.1202324983"><ele>15.04</ele><time>2015-08-26T09:20:59Z</time></trkpt><trkpt lat="52.0807283744" lon="-2.1202465799"><ele>14.08</ele><time>2015-08-26T09:21:00Z</time></trkpt><trkpt lat="52.0807202440" lon="-2.1203074325"><ele>13.60</ele><time>2015-08-26T09:21:07Z</time></trkpt><trkpt lat="52.0807192381" lon="-2.1203158982"><ele>15.52</ele><time>2015-08-26T09:21:11Z</time></trkpt><trkpt lat="52.0806979481" lon="-2.1205106098"><ele>15.04</ele><time>2015-08-26T09:21:28Z</time></trkpt><trkpt lat="52.0806375146" lon="-2.1207420342"><ele>9.75</ele><time>2015-08-26T09:21:44Z</time></trkpt><trkpt lat="52.0806331560" lon="-2.1207461413"><ele>14.56</ele><time>2015-08-26T09:21:45Z</time></trkpt><trkpt lat="52.0806271210" lon="-2.1207476500"><ele>19.84</ele><time>2015-08-26T09:21:46Z</time></trkpt><trkpt lat="52.0806215890" lon="-2.1207504999"><ele>15.04</ele><time>2015-08-26T09:21:47Z</time></trkpt><trkpt lat="52.0806211699" lon="-2.1208106820"><ele>16.00</ele><time>2015-08-26T09:21:51Z</time></trkpt><trkpt lat="52.0805532765" lon="-2.1210911404"><ele>15.52</ele><time>2015-08-26T09:22:11Z</time></trkpt><trkpt lat="52.0805373508" lon="-2.1211436111"><ele>16.00</ele><time>2015-08-26T09:22:15Z</time></trkpt><trkpt lat="52.0804609917" lon="-2.1214144304"><ele>15.52</ele><time>2015-08-26T09:22:35Z</time></trkpt><trkpt lat="52.0804272965" lon="-2.1215021890"><ele>16.00</ele><time>2015-08-26T09:22:41Z</time></trkpt><trkpt lat="52.0803613309" lon="-2.1216802206"><ele>15.52</ele><time>2015-08-26T09:22:56Z</time></trkpt><trkpt lat="52.0803894941" lon="-2.1217177715"><ele>15.52</ele><time>2015-08-26T09:23:13Z</time></trkpt><trkpt lat="52.0803653542" lon="-2.1217605192"><ele>15.04</ele><time>2015-08-26T09:23:30Z</time></trkpt><trkpt lat="52.0803179964" lon="-2.1219537221"><ele>15.04</ele><time>2015-08-26T09:23:42Z</time></trkpt><trkpt lat="52.0802957006" lon="-2.1220446657"><ele>16.00</ele><time>2015-08-26T09:23:46Z</time></trkpt><trkpt lat="52.0802789368" lon="-2.1223138925"><ele>15.04</ele><time>2015-08-26T09:23:59Z</time></trkpt><trkpt lat="52.0802402962" lon="-2.1225687861"><ele>15.52</ele><time>2015-08-26T09:24:14Z</time></trkpt><trkpt lat="52.0801974647" lon="-2.1227944270"><ele>14.56</ele><time>2015-08-26T09:24:29Z</time></trkpt><trkpt lat="52.0801765937" lon="-2.1228917409"><ele>15.04</ele><time>2015-08-26T09:24:44Z</time></trkpt><trkpt lat="52.0801331755" lon="-2.1230893862"><ele>14.56</ele><time>2015-08-26T09:24:59Z</time></trkpt><trkpt lat="52.0800710656" lon="-2.1233480517"><ele>14.08</ele><time>2015-08-26T09:25:18Z</time></trkpt><trkpt lat="52.0800303295" lon="-2.1235767938"><ele>14.56</ele><time>2015-08-26T09:25:33Z</time></trkpt><trkpt lat="52.0799905993" lon="-2.1237615310"><ele>15.52</ele><time>2015-08-26T09:25:44Z</time></trkpt><trkpt lat="52.0799662918" lon="-2.1238711663"><ele>15.04</ele><time>2015-08-26T09:25:55Z</time></trkpt><trkpt lat="52.0799269807" lon="-2.1240543108"><ele>15.04</ele><time>2015-08-26T09:26:09Z</time></trkpt><trkpt lat="52.0799252205" lon="-2.1240692306"><ele>15.52</ele><time>2015-08-26T09:26:10Z</time></trkpt><trkpt lat="52.0799033437" lon="-2.1243066061"><ele>14.56</ele><time>2015-08-26T09:26:27Z</time></trkpt><trkpt lat="52.0798574947" lon="-2.1244623419"><ele>15.04</ele><time>2015-08-26T09:26:40Z</time></trkpt><trkpt lat="52.0798136573" lon="-2.1246671956"><ele>15.52</ele><time>2015-08-26T09:26:54Z</time></trkpt><trkpt lat="52.0797956362" lon="-2.1248233505"><ele>14.56</ele><time>2015-08-26T09:27:07Z</time></trkpt><trkpt lat="52.0797533076" lon="-2.1250788309"><ele>15.04</ele><time>2015-08-26T09:27:24Z</time></trkpt><trkpt lat="52.0797274075" lon="-2.1252230834"><ele>15.52</ele><time>2015-08-26T09:27:34Z</time></trkpt><trkpt lat="52.0797246415" lon="-2.1252587903"><ele>14.56</ele><time>2015-08-26T09:27:36Z</time></trkpt><trkpt lat="52.0796730090" lon="-2.1255284362"><ele>15.04</ele><time>2015-08-26T09:27:52Z</time></trkpt><trkpt lat="52.0796615258" lon="-2.1256982535"><ele>15.04</ele><time>2015-08-26T09:28:10Z</time></trkpt><trkpt lat="52.0795798022" lon="-2.1258742735"><ele>15.04</ele><time>2015-08-26T09:28:27Z</time></trkpt><trkpt lat="52.0795359649" lon="-2.1259658877"><ele>14.56</ele><time>2015-08-26T09:28:38Z</time></trkpt><trkpt lat="52.0795011800" lon="-2.1260867547"><ele>14.08</ele><time>2015-08-26T09:28:50Z</time></trkpt><trkpt lat="52.0794622041" lon="-2.1261871699"><ele>14.56</ele><time>2015-08-26T09:29:02Z</time></trkpt><trkpt lat="52.0794246532" lon="-2.1263367031"><ele>15.04</ele><time>2015-08-26T09:29:13Z</time></trkpt><trkpt lat="52.0793974120" lon="-2.1263978910"><ele>15.04</ele><time>2015-08-26T09:29:18Z</time></trkpt><trkpt lat="52.0793241542" lon="-2.1266800258"><ele>15.52</ele><time>2015-08-26T09:29:37Z</time></trkpt><trkpt lat="52.0793094020" lon="-2.1268779226"><ele>14.08</ele><time>2015-08-26T09:29:51Z</time></trkpt><trkpt lat="52.0792327076" lon="-2.1270011365"><ele>14.08</ele><time>2015-08-26T09:30:04Z</time></trkpt><trkpt lat="52.0792222302" lon="-2.1270197444"><ele>14.56</ele><time>2015-08-26T09:30:17Z</time></trkpt><trkpt lat="52.0791840926" lon="-2.1271484066"><ele>13.60</ele><time>2015-08-26T09:30:29Z</time></trkpt><trkpt lat="52.0790690929" lon="-2.1274406835"><ele>14.08</ele><time>2015-08-26T09:30:50Z</time></trkpt><trkpt lat="52.0790301170" lon="-2.1275493130"><ele>13.60</ele><time>2015-08-26T09:30:58Z</time></trkpt><trkpt lat="52.0790120121" lon="-2.1276103333"><ele>14.56</ele><time>2015-08-26T09:31:02Z</time></trkpt><trkpt lat="52.0789690129" lon="-2.1277282666"><ele>14.08</ele><time>2015-08-26T09:31:12Z</time></trkpt><trkpt lat="52.0788883790" lon="-2.1279315278"><ele>14.08</ele><time>2015-08-26T09:31:28Z</time></trkpt><trkpt lat="52.0788226649" lon="-2.1281246468"><ele>14.56</ele><time>2015-08-26T09:31:44Z</time></trkpt><trkpt lat="52.0787629858" lon="-2.1282867528"><ele>14.08</ele><time>2015-08-26T09:31:57Z</time></trkpt><trkpt lat="52.0786997862" lon="-2.1284503676"><ele>14.56</ele><time>2015-08-26T09:32:11Z</time></trkpt><trkpt lat="52.0786211640" lon="-2.1286581550"><ele>14.08</ele><time>2015-08-26T09:32:26Z</time></trkpt><trkpt lat="52.0786164701" lon="-2.1286677942"><ele>14.08</ele><time>2015-08-26T09:32:27Z</time></trkpt><trkpt lat="52.0785355847" lon="-2.1289067622"><ele>14.56</ele><time>2015-08-26T09:32:43Z</time></trkpt><trkpt lat="52.0784956031" lon="-2.1290079318"><ele>14.56</ele><time>2015-08-26T09:32:58Z</time></trkpt><trkpt lat="52.0784277935" lon="-2.1291113645"><ele>13.60</ele><time>2015-08-26T09:33:14Z</time></trkpt><trkpt lat="52.0783221815" lon="-2.1293059085"><ele>13.60</ele><time>2015-08-26T09:33:31Z</time></trkpt><trkpt lat="52.0781911723" lon="-2.1295570303"><ele>14.08</ele><time>2015-08-26T09:33:52Z</time></trkpt><trkpt lat="52.0781201776" lon="-2.1296949964"><ele>14.08</ele><time>2015-08-26T09:34:03Z</time></trkpt><trkpt lat="52.0780709758" lon="-2.1297944896"><ele>12.63</ele><time>2015-08-26T09:34:10Z</time></trkpt><trkpt lat="52.0779631846" lon="-2.1299853455"><ele>14.08</ele><time>2015-08-26T09:34:26Z</time></trkpt><trkpt lat="52.0779309142" lon="-2.1300808992"><ele>14.56</ele><time>2015-08-26T09:34:41Z</time></trkpt><trkpt lat="52.0778696425" lon="-2.1301886905"><ele>14.56</ele><time>2015-08-26T09:34:55Z</time></trkpt><trkpt lat="52.0777918585" lon="-2.1303338651"><ele>14.08</ele><time>2015-08-26T09:35:09Z</time></trkpt><trkpt lat="52.0777035970" lon="-2.1305086277"><ele>14.56</ele><time>2015-08-26T09:35:24Z</time></trkpt><trkpt lat="52.0776310097" lon="-2.1306686383"><ele>15.04</ele><time>2015-08-26T09:35:39Z</time></trkpt><trkpt lat="52.0775382221" lon="-2.1308141481"><ele>14.56</ele><time>2015-08-26T09:35:54Z</time></trkpt><trkpt lat="52.0774595160" lon="-2.1309736557"><ele>14.56</ele><time>2015-08-26T09:36:08Z</time></trkpt><trkpt lat="52.0773736853" lon="-2.1311100293"><ele>14.56</ele><time>2015-08-26T09:36:22Z</time></trkpt><trkpt lat="52.0772603620" lon="-2.1312678605"><ele>14.56</ele><time>2015-08-26T09:36:37Z</time></trkpt><trkpt lat="52.0771549176" lon="-2.1314096823"><ele>14.56</ele><time>2015-08-26T09:36:52Z</time></trkpt><trkpt lat="52.0770360623" lon="-2.1315709502"><ele>14.56</ele><time>2015-08-26T09:37:09Z</time></trkpt><trkpt lat="52.0769593678" lon="-2.1316849440"><ele>14.08</ele><time>2015-08-26T09:37:23Z</time></trkpt><trkpt lat="52.0769423526" lon="-2.1317260154"><ele>14.56</ele><time>2015-08-26T09:37:38Z</time></trkpt><trkpt lat="52.0769064780" lon="-2.1317543462"><ele>14.08</ele><time>2015-08-26T09:37:55Z</time></trkpt><trkpt lat="52.0769039635" lon="-2.1317683440"><ele>15.04</ele><time>2015-08-26T09:38:10Z</time></trkpt><trkpt lat="52.0768633951" lon="-2.1318088286"><ele>14.56</ele><time>2015-08-26T09:38:26Z</time></trkpt><trkpt lat="52.0768567733" lon="-2.1318198089"><ele>14.56</ele><time>2015-08-26T09:38:27Z</time></trkpt><trkpt lat="52.0768278558" lon="-2.1318465471"><ele>15.04</ele><time>2015-08-26T09:38:30Z</time></trkpt><trkpt lat="52.0767177176" lon="-2.1319713537"><ele>15.04</ele><time>2015-08-26T09:38:44Z</time></trkpt><trkpt lat="52.0765947551" lon="-2.1321037039"><ele>14.56</ele><time>2015-08-26T09:38:58Z</time></trkpt><trkpt lat="52.0765644964" lon="-2.1321309451"><ele>14.56</ele><time>2015-08-26T09:39:01Z</time></trkpt><trkpt lat="52.0765367523" lon="-2.1321644727"><ele>14.08</ele><time>2015-08-26T09:39:05Z</time></trkpt><trkpt lat="52.0764659252" lon="-2.1322779637"><ele>14.56</ele><time>2015-08-26T09:39:16Z</time></trkpt><trkpt lat="52.0763312280" lon="-2.1324698254"><ele>14.56</ele><time>2015-08-26T09:39:32Z</time></trkpt><trkpt lat="52.0761983749" lon="-2.1326243877"><ele>14.56</ele><time>2015-08-26T09:39:47Z</time></trkpt><trkpt lat="52.0761431381" lon="-2.1326942928"><ele>14.56</ele><time>2015-08-26T09:39:54Z</time></trkpt><trkpt lat="52.0761185791" lon="-2.1327186003"><ele>14.56</ele><time>2015-08-26T09:39:57Z</time></trkpt><trkpt lat="52.0760758314" lon="-2.1327594202"><ele>15.04</ele><time>2015-08-26T09:40:02Z</time></trkpt><trkpt lat="52.0759680402" lon="-2.1328962129"><ele>14.56</ele><time>2015-08-26T09:40:16Z</time></trkpt><trkpt lat="52.0759290643" lon="-2.1329427324"><ele>14.56</ele><time>2015-08-26T09:40:21Z</time></trkpt><trkpt lat="52.0758523699" lon="-2.1330340113"><ele>14.08</ele><time>2015-08-26T09:40:32Z</time></trkpt><trkpt lat="52.0757926907" lon="-2.1330879908"><ele>14.56</ele><time>2015-08-26T09:40:40Z</time></trkpt><trkpt lat="52.0756738354" lon="-2.1332261246"><ele>15.04</ele><time>2015-08-26T09:40:56Z</time></trkpt><trkpt lat="52.0756669622" lon="-2.1332335006"><ele>14.56</ele><time>2015-08-26T09:40:57Z</time></trkpt><trkpt lat="52.0756019186" lon="-2.1333070938"><ele>15.04</ele><time>2015-08-26T09:41:06Z</time></trkpt><trkpt lat="52.0754783694" lon="-2.1334168967"><ele>15.04</ele><time>2015-08-26T09:41:20Z</time></trkpt><trkpt lat="52.0753709972" lon="-2.1334776655"><ele>14.56</ele><time>2015-08-26T09:41:32Z</time></trkpt><trkpt lat="52.0753725059" lon="-2.1334895678"><ele>15.04</ele><time>2015-08-26T09:41:44Z</time></trkpt><trkpt lat="52.0753694046" lon="-2.1334873047"><ele>14.56</ele><time>2015-08-26T09:42:09Z</time></trkpt><trkpt lat="52.0753409900" lon="-2.1335109416"><ele>15.04</ele><time>2015-08-26T09:42:20Z</time></trkpt><trkpt lat="52.0753122400" lon="-2.1335344948"><ele>14.56</ele><time>2015-08-26T09:42:24Z</time></trkpt><trkpt lat="52.0751463622" lon="-2.1336366702"><ele>16.00</ele><time>2015-08-26T09:42:40Z</time></trkpt><trkpt lat="52.0749809034" lon="-2.1337362472"><ele>16.48</ele><time>2015-08-26T09:42:58Z</time></trkpt><trkpt lat="52.0747989323" lon="-2.1338162944"><ele>15.52</ele><time>2015-08-26T09:43:19Z</time></trkpt><trkpt lat="52.0746613853" lon="-2.1338215750"><ele>15.04</ele><time>2015-08-26T09:43:32Z</time></trkpt><trkpt lat="52.0746514108" lon="-2.1338213235"><ele>15.52</ele><time>2015-08-26T09:43:33Z</time></trkpt><trkpt lat="52.0746254269" lon="-2.1338219102"><ele>16.96</ele><time>2015-08-26T09:43:35Z</time></trkpt><trkpt lat="52.0745809190" lon="-2.1338348184"><ele>15.52</ele><time>2015-08-26T09:43:40Z</time></trkpt><trkpt lat="52.0744650811" lon="-2.1338424459"><ele>15.04</ele><time>2015-08-26T09:43:50Z</time></trkpt><trkpt lat="52.0742895640" lon="-2.1338719502"><ele>15.52</ele><time>2015-08-26T09:44:06Z</time></trkpt><trkpt lat="52.0741977822" lon="-2.1338774823"><ele>15.52</ele><time>2015-08-26T09:44:15Z</time></trkpt><trkpt lat="52.0741372649" lon="-2.1338552702"><ele>15.52</ele><time>2015-08-26T09:44:22Z</time></trkpt><trkpt lat="52.0739402063" lon="-2.1338925697"><ele>15.52</ele><time>2015-08-26T09:44:39Z</time></trkpt><trkpt lat="52.0737879071" lon="-2.1339411847"><ele>14.56</ele><time>2015-08-26T09:44:56Z</time></trkpt><trkpt lat="52.0736434031" lon="-2.1338934917"><ele>15.04</ele><time>2015-08-26T09:45:10Z</time></trkpt><trkpt lat="52.0734805427" lon="-2.1338691842"><ele>14.56</ele><time>2015-08-26T09:45:26Z</time></trkpt><trkpt lat="52.0733747631" lon="-2.1339488123"><ele>15.04</ele><time>2015-08-26T09:45:42Z</time></trkpt><trkpt lat="52.0732535608" lon="-2.1339342277"><ele>14.56</ele><time>2015-08-26T09:45:59Z</time></trkpt><trkpt lat="52.0732420776" lon="-2.1339312103"><ele>14.56</ele><time>2015-08-26T09:46:00Z</time></trkpt><trkpt lat="52.0730570890" lon="-2.1339343116"><ele>14.56</ele><time>2015-08-26T09:46:18Z</time></trkpt><trkpt lat="52.0730188675" lon="-2.1339289472"><ele>14.56</ele><time>2015-08-26T09:46:33Z</time></trkpt><trkpt lat="52.0730064623" lon="-2.1339230798"><ele>15.04</ele><time>2015-08-26T09:47:03Z</time></trkpt><trkpt lat="52.0730005950" lon="-2.1339242533"><ele>14.08</ele><time>2015-08-26T09:47:05Z</time></trkpt><trkpt lat="52.0729073044" lon="-2.1339422744"><ele>16.00</ele><time>2015-08-26T09:47:12Z</time></trkpt><trkpt lat="52.0726868603" lon="-2.1339670848"><ele>14.56</ele><time>2015-08-26T09:47:30Z</time></trkpt><trkpt lat="52.0724605490" lon="-2.1339627262"><ele>14.56</ele><time>2015-08-26T09:47:48Z</time></trkpt><trkpt lat="52.0723546017" lon="-2.1339637320"><ele>15.04</ele><time>2015-08-26T09:47:57Z</time></trkpt><trkpt lat="52.0721118618" lon="-2.1338856127"><ele>15.52</ele><time>2015-08-26T09:48:16Z</time></trkpt><trkpt lat="52.0718975365" lon="-2.1338602155"><ele>15.04</ele><time>2015-08-26T09:48:34Z</time></trkpt><trkpt lat="52.0716981310" lon="-2.1337872930"><ele>15.04</ele><time>2015-08-26T09:48:50Z</time></trkpt><trkpt lat="52.0715237036" lon="-2.1337556094"><ele>15.52</ele><time>2015-08-26T09:49:08Z</time></trkpt><trkpt lat="52.0714302454" lon="-2.1337632369"><ele>14.56</ele><time>2015-08-26T09:49:24Z</time></trkpt><trkpt lat="52.0713223703" lon="-2.1336873807"><ele>15.52</ele><time>2015-08-26T09:49:38Z</time></trkpt><trkpt lat="52.0711430814" lon="-2.1336388495"><ele>15.52</ele><time>2015-08-26T09:49:56Z</time></trkpt><trkpt lat="52.0709963981" lon="-2.1336046513"><ele>15.04</ele><time>2015-08-26T09:50:11Z</time></trkpt><trkpt lat="52.0708458591" lon="-2.1335904859"><ele>14.56</ele><time>2015-08-26T09:50:26Z</time></trkpt><trkpt lat="52.0706915483" lon="-2.1335511748"><ele>14.56</ele><time>2015-08-26T09:50:42Z</time></trkpt><trkpt lat="52.0706480462" lon="-2.1335241850"><ele>15.04</ele><time>2015-08-26T09:50:53Z</time></trkpt><trkpt lat="52.0706077293" lon="-2.1335114446"><ele>14.56</ele><time>2015-08-26T09:50:57Z</time></trkpt><trkpt lat="52.0705022849" lon="-2.1334567107"><ele>15.04</ele><time>2015-08-26T09:51:11Z</time></trkpt><trkpt lat="52.0703254268" lon="-2.1334759891"><ele>15.04</ele><time>2015-08-26T09:51:26Z</time></trkpt><trkpt lat="52.0701633207" lon="-2.1334907413"><ele>15.04</ele><time>2015-08-26T09:51:41Z</time></trkpt><trkpt lat="52.0699961856" lon="-2.1335266996"><ele>14.56</ele><time>2015-08-26T09:51:57Z</time></trkpt><trkpt lat="52.0698530227" lon="-2.1335344948"><ele>15.04</ele><time>2015-08-26T09:52:12Z</time></trkpt><trkpt lat="52.0697015617" lon="-2.1335411165"><ele>15.04</ele><time>2015-08-26T09:52:27Z</time></trkpt><trkpt lat="52.0695591532" lon="-2.1335505042"><ele>15.04</ele><time>2015-08-26T09:52:42Z</time></trkpt><trkpt lat="52.0694152359" lon="-2.1335942578"><ele>14.56</ele><time>2015-08-26T09:52:58Z</time></trkpt><trkpt lat="52.0694083627" lon="-2.1335967723"><ele>14.08</ele><time>2015-08-26T09:53:02Z</time></trkpt><trkpt lat="52.0693408046" lon="-2.1336108539"><ele>14.08</ele><time>2015-08-26T09:53:13Z</time></trkpt><trkpt lat="52.0692948718" lon="-2.1336038131"><ele>14.56</ele><time>2015-08-26T09:53:17Z</time></trkpt><trkpt lat="52.0692300797" lon="-2.1336167213"><ele>14.56</ele><time>2015-08-26T09:53:35Z</time></trkpt><trkpt lat="52.0692042634" lon="-2.1336187329"><ele>16.48</ele><time>2015-08-26T09:53:56Z</time></trkpt><trkpt lat="52.0690262318" lon="-2.1335982811"><ele>14.56</ele><time>2015-08-26T09:54:11Z</time></trkpt><trkpt lat="52.0688564982" lon="-2.1336039808"><ele>15.52</ele><time>2015-08-26T09:54:25Z</time></trkpt><trkpt lat="52.0687078871" lon="-2.1336310543"><ele>14.56</ele><time>2015-08-26T09:54:40Z</time></trkpt><trkpt lat="52.0686522312" lon="-2.1336401068"><ele>14.56</ele><time>2015-08-26T09:54:53Z</time></trkpt><trkpt lat="52.0684955735" lon="-2.1336240973"><ele>14.08</ele><time>2015-08-26T09:55:07Z</time></trkpt><trkpt lat="52.0684058033" lon="-2.1336297132"><ele>15.04</ele><time>2015-08-26T09:55:14Z</time></trkpt><trkpt lat="52.0683791488" lon="-2.1336301323"><ele>14.08</ele><time>2015-08-26T09:55:16Z</time></trkpt><trkpt lat="52.0683073159" lon="-2.1336197387"><ele>15.04</ele><time>2015-08-26T09:55:23Z</time></trkpt><trkpt lat="52.0682141092" lon="-2.1336202417"><ele>14.56</ele><time>2015-08-26T09:55:31Z</time></trkpt><trkpt lat="52.0680104289" lon="-2.1335525997"><ele>14.56</ele><time>2015-08-26T09:55:48Z</time></trkpt><trkpt lat="52.0679675136" lon="-2.1335342433"><ele>15.04</ele><time>2015-08-26T09:55:51Z</time></trkpt><trkpt lat="52.0678286254" lon="-2.1334241051"><ele>15.52</ele><time>2015-08-26T09:56:04Z</time></trkpt><trkpt lat="52.0677391905" lon="-2.1332978737"><ele>15.04</ele><time>2015-08-26T09:56:14Z</time></trkpt><trkpt lat="52.0677028969" lon="-2.1331679542"><ele>15.04</ele><time>2015-08-26T09:56:22Z</time></trkpt><trkpt lat="52.0676395297" lon="-2.1329669561"><ele>15.52</ele><time>2015-08-26T09:56:35Z</time></trkpt><trkpt lat="52.0675823651" lon="-2.1328341868"><ele>15.52</ele><time>2015-08-26T09:56:49Z</time></trkpt><trkpt lat="52.0675800182" lon="-2.1328235418"><ele>16.00</ele><time>2015-08-26T09:57:16Z</time></trkpt><trkpt lat="52.0675839577" lon="-2.1328223683"><ele>16.00</ele><time>2015-08-26T09:57:43Z</time></trkpt><trkpt lat="52.0675834548" lon="-2.1328310855"><ele>15.04</ele><time>2015-08-26T09:58:03Z</time></trkpt><trkpt lat="52.0675837062" lon="-2.1328315884"><ele>8.79</ele><time>2015-08-26T09:58:16Z</time></trkpt><trkpt lat="52.0675837062" lon="-2.1328323428"><ele>15.52</ele><time>2015-08-26T09:58:17Z</time></trkpt><trkpt lat="52.0675959438" lon="-2.1328320913"><ele>15.52</ele><time>2015-08-26T09:58:44Z</time></trkpt><trkpt lat="52.0675868075" lon="-2.1328232065"><ele>15.52</ele><time>2015-08-26T09:59:09Z</time></trkpt><trkpt lat="52.0675863046" lon="-2.1328241285"><ele>19.84</ele><time>2015-08-26T09:59:13Z</time></trkpt><trkpt lat="52.0675862208" lon="-2.1328239609"><ele>16.48</ele><time>2015-08-26T09:59:14Z</time></trkpt><trkpt lat="52.0675638411" lon="-2.1327795368"><ele>15.04</ele><time>2015-08-26T09:59:35Z</time></trkpt><trkpt lat="52.0675601531" lon="-2.1327670477"><ele>15.04</ele><time>2015-08-26T09:59:36Z</time></trkpt><trkpt lat="52.0675394498" lon="-2.1326921973"><ele>15.04</ele><time>2015-08-26T09:59:41Z</time></trkpt><trkpt lat="52.0674728975" lon="-2.1324958093"><ele>15.52</ele><time>2015-08-26T09:59:56Z</time></trkpt><trkpt lat="52.0674700476" lon="-2.1324800514"><ele>15.52</ele><time>2015-08-26T10:00:21Z</time></trkpt><trkpt lat="52.0674604923" lon="-2.1324542351"><ele>15.04</ele><time>2015-08-26T10:00:30Z</time></trkpt><trkpt lat="52.0674336702" lon="-2.1323873475"><ele>14.56</ele><time>2015-08-26T10:00:36Z</time></trkpt><trkpt lat="52.0673727337" lon="-2.1322180331"><ele>15.52</ele><time>2015-08-26T10:00:51Z</time></trkpt><trkpt lat="52.0673478395" lon="-2.1321247425"><ele>15.52</ele><time>2015-08-26T10:00:57Z</time></trkpt><trkpt lat="52.0673304889" lon="-2.1320793126"><ele>16.48</ele><time>2015-08-26T10:01:00Z</time></trkpt><trkpt lat="52.0673279744" lon="-2.1320454497"><ele>16.96</ele><time>2015-08-26T10:01:02Z</time></trkpt><trkpt lat="52.0673154853" lon="-2.1320132632"><ele>16.48</ele><time>2015-08-26T10:01:04Z</time></trkpt><trkpt lat="52.0672934409" lon="-2.1319642290"><ele>15.52</ele><time>2015-08-26T10:01:08Z</time></trkpt><trkpt lat="52.0672327559" lon="-2.1317937411"><ele>16.00</ele><time>2015-08-26T10:01:20Z</time></trkpt><trkpt lat="52.0671816263" lon="-2.1316122729"><ele>14.56</ele><time>2015-08-26T10:01:32Z</time></trkpt><trkpt lat="52.0671604201" lon="-2.1315693576"><ele>15.52</ele><time>2015-08-26T10:01:40Z</time></trkpt><trkpt lat="52.0671482664" lon="-2.1315453853"><ele>15.52</ele><time>2015-08-26T10:01:42Z</time></trkpt><trkpt lat="52.0670851506" lon="-2.1313417051"><ele>15.52</ele><time>2015-08-26T10:01:55Z</time></trkpt><trkpt lat="52.0670768525" lon="-2.1313126199"><ele>15.52</ele><time>2015-08-26T10:01:57Z</time></trkpt><trkpt lat="52.0670251362" lon="-2.1311319899"><ele>15.04</ele><time>2015-08-26T10:02:09Z</time></trkpt><trkpt lat="52.0670066122" lon="-2.1310816985"><ele>15.04</ele><time>2015-08-26T10:02:12Z</time></trkpt><trkpt lat="52.0669326838" lon="-2.1308508608"><ele>15.52</ele><time>2015-08-26T10:02:26Z</time></trkpt><trkpt lat="52.0669261459" lon="-2.1308315825"><ele>15.04</ele><time>2015-08-26T10:02:28Z</time></trkpt><trkpt lat="52.0669173449" lon="-2.1308066882"><ele>15.52</ele><time>2015-08-26T10:02:30Z</time></trkpt><trkpt lat="52.0668400638" lon="-2.1305837296"><ele>14.56</ele><time>2015-08-26T10:02:45Z</time></trkpt><trkpt lat="52.0667742658" lon="-2.1303978190"><ele>15.04</ele><time>2015-08-26T10:02:58Z</time></trkpt><trkpt lat="52.0667348709" lon="-2.1302327793"><ele>15.52</ele><time>2015-08-26T10:03:10Z</time></trkpt><trkpt lat="52.0667026844" lon="-2.1301559173"><ele>15.04</ele><time>2015-08-26T10:03:15Z</time></trkpt><trkpt lat="52.0666489564" lon="-2.1299374849"><ele>15.04</ele><time>2015-08-26T10:03:28Z</time></trkpt><trkpt lat="52.0665684901" lon="-2.1297241654"><ele>14.56</ele><time>2015-08-26T10:03:42Z</time></trkpt><trkpt lat="52.0665259939" lon="-2.1296443697"><ele>15.04</ele><time>2015-08-26T10:03:48Z</time></trkpt><trkpt lat="52.0664125029" lon="-2.1295193955"><ele>15.04</ele><time>2015-08-26T10:04:02Z</time></trkpt><trkpt lat="52.0663629659" lon="-2.1294754744"><ele>15.52</ele><time>2015-08-26T10:04:15Z</time></trkpt><trkpt lat="52.0663212240" lon="-2.1294006240"><ele>14.56</ele><time>2015-08-26T10:04:32Z</time></trkpt><trkpt lat="52.0663001854" lon="-2.1292562038"><ele>15.04</ele><time>2015-08-26T10:04:45Z</time></trkpt><trkpt lat="52.0662556775" lon="-2.1292261966"><ele>14.08</ele><time>2015-08-26T10:04:52Z</time></trkpt><trkpt lat="52.0662203059" lon="-2.1291768271"><ele>15.52</ele><time>2015-08-26T10:04:57Z</time></trkpt><trkpt lat="52.0660870336" lon="-2.1289941855"><ele>15.04</ele><time>2015-08-26T10:05:12Z</time></trkpt><trkpt lat="52.0659781527" lon="-2.1288247872"><ele>15.52</ele><time>2015-08-26T10:05:27Z</time></trkpt><trkpt lat="52.0658654999" lon="-2.1286686324"><ele>15.52</ele><time>2015-08-26T10:05:41Z</time></trkpt><trkpt lat="52.0657924935" lon="-2.1285593323"><ele>15.04</ele><time>2015-08-26T10:05:51Z</time></trkpt><trkpt lat="52.0656543598" lon="-2.1284113917"><ele>15.04</ele><time>2015-08-26T10:06:07Z</time></trkpt><trkpt lat="52.0655295532" lon="-2.1282633673"><ele>15.52</ele><time>2015-08-26T10:06:21Z</time></trkpt><trkpt lat="52.0654189959" lon="-2.1281253174"><ele>16.00</ele><time>2015-08-26T10:06:35Z</time></trkpt><trkpt lat="52.0653111208" lon="-2.1280376427"><ele>15.04</ele><time>2015-08-26T10:06:49Z</time></trkpt><trkpt lat="52.0652434789" lon="-2.1279491298"><ele>15.04</ele><time>2015-08-26T10:07:05Z</time></trkpt><trkpt lat="52.0652245358" lon="-2.1279221401"><ele>15.04</ele><time>2015-08-26T10:07:22Z</time></trkpt><trkpt lat="52.0651922654" lon="-2.1279060468"><ele>17.44</ele><time>2015-08-26T10:07:25Z</time></trkpt><trkpt lat="52.0651689637" lon="-2.1278759558"><ele>15.04</ele><time>2015-08-26T10:07:29Z</time></trkpt><trkpt lat="52.0650869049" lon="-2.1278006025"><ele>15.04</ele><time>2015-08-26T10:07:38Z</time></trkpt><trkpt lat="52.0649495255" lon="-2.1276390832"><ele>15.52</ele><time>2015-08-26T10:07:55Z</time></trkpt><trkpt lat="52.0648110565" lon="-2.1274875384"><ele>14.56</ele><time>2015-08-26T10:08:10Z</time></trkpt><trkpt lat="52.0646648761" lon="-2.1273680124"><ele>15.52</ele><time>2015-08-26T10:08:25Z</time></trkpt><trkpt lat="52.0645480324" lon="-2.1272786614"><ele>14.56</ele><time>2015-08-26T10:08:42Z</time></trkpt><trkpt lat="52.0645097271" lon="-2.1271714568"><ele>15.04</ele><time>2015-08-26T10:08:56Z</time></trkpt><trkpt lat="52.0644472819" lon="-2.1271067485"><ele>15.04</ele><time>2015-08-26T10:09:12Z</time></trkpt><trkpt lat="52.0643386524" lon="-2.1269801818"><ele>15.52</ele><time>2015-08-26T10:09:27Z</time></trkpt><trkpt lat="52.0642341301" lon="-2.1268738993"><ele>15.52</ele><time>2015-08-26T10:09:40Z</time></trkpt><trkpt lat="52.0641346369" lon="-2.1267693769"><ele>15.04</ele><time>2015-08-26T10:09:52Z</time></trkpt><trkpt lat="52.0640150271" lon="-2.1266388707"><ele>15.04</ele><time>2015-08-26T10:10:05Z</time></trkpt><trkpt lat="52.0639205631" lon="-2.1265304089"><ele>15.04</ele><time>2015-08-26T10:10:17Z</time></trkpt><trkpt lat="52.0639130194" lon="-2.1265170816"><ele>14.56</ele><time>2015-08-26T10:10:18Z</time></trkpt><trkpt lat="52.0638065692" lon="-2.1263948735"><ele>15.04</ele><time>2015-08-26T10:10:31Z</time></trkpt><trkpt lat="52.0637193974" lon="-2.1263175923"><ele>15.04</ele><time>2015-08-26T10:10:44Z</time></trkpt><trkpt lat="52.0636669267" lon="-2.1262500342"><ele>17.44</ele><time>2015-08-26T10:10:58Z</time></trkpt><trkpt lat="52.0635516755" lon="-2.1261403151"><ele>14.56</ele><time>2015-08-26T10:11:11Z</time></trkpt><trkpt lat="52.0634513441" lon="-2.1260178555"><ele>16.00</ele><time>2015-08-26T10:11:23Z</time></trkpt><trkpt lat="52.0633504260" lon="-2.1259279177"><ele>15.52</ele><time>2015-08-26T10:11:35Z</time></trkpt><trkpt lat="52.0633104444" lon="-2.1259103995"><ele>14.56</ele><time>2015-08-26T10:11:42Z</time></trkpt><trkpt lat="52.0633293036" lon="-2.1259305160"><ele>10.23</ele><time>2015-08-26T10:11:48Z</time></trkpt><trkpt lat="52.0633337460" lon="-2.1259335335"><ele>14.56</ele><time>2015-08-26T10:11:49Z</time></trkpt><trkpt lat="52.0633385237" lon="-2.1259309351"><ele>17.92</ele><time>2015-08-26T10:11:54Z</time></trkpt><trkpt lat="52.0633428823" lon="-2.1259279177"><ele>14.08</ele><time>2015-08-26T10:11:56Z</time></trkpt><trkpt lat="52.0633436367" lon="-2.1259279177"><ele>14.56</ele><time>2015-08-26T10:11:57Z</time></trkpt><trkpt lat="52.0633464865" lon="-2.1259301808"><ele>15.04</ele><time>2015-08-26T10:12:09Z</time></trkpt><trkpt lat="52.0632262062" lon="-2.1258215513"><ele>15.04</ele><time>2015-08-26T10:12:25Z</time></trkpt><trkpt lat="52.0632034075" lon="-2.1257890295"><ele>14.56</ele><time>2015-08-26T10:12:28Z</time></trkpt><trkpt lat="52.0631052554" lon="-2.1255807392"><ele>15.04</ele><time>2015-08-26T10:12:41Z</time></trkpt><trkpt lat="52.0630625077" lon="-2.1254913043"><ele>15.04</ele><time>2015-08-26T10:12:47Z</time></trkpt><trkpt lat="52.0630225260" lon="-2.1253977623"><ele>15.04</ele><time>2015-08-26T10:12:53Z</time></trkpt><trkpt lat="52.0630112104" lon="-2.1253668331"><ele>15.04</ele><time>2015-08-26T10:12:56Z</time></trkpt><trkpt lat="52.0629961230" lon="-2.1253281925"><ele>15.04</ele><time>2015-08-26T10:12:59Z</time></trkpt><trkpt lat="52.0629559737" lon="-2.1252408531"><ele>14.56</ele><time>2015-08-26T10:13:06Z</time></trkpt><trkpt lat="52.0629324205" lon="-2.1251778211"><ele>14.08</ele><time>2015-08-26T10:13:17Z</time></trkpt><trkpt lat="52.0628904272" lon="-2.1250836086"><ele>15.04</ele><time>2015-08-26T10:13:26Z</time></trkpt><trkpt lat="52.0627919398" lon="-2.1248662658"><ele>15.04</ele><time>2015-08-26T10:13:40Z</time></trkpt><trkpt lat="52.0626846515" lon="-2.1246795170"><ele>15.04</ele><time>2015-08-26T10:13:54Z</time></trkpt><trkpt lat="52.0626523811" lon="-2.1246358473"><ele>14.56</ele><time>2015-08-26T10:14:02Z</time></trkpt><trkpt lat="52.0626120642" lon="-2.1245434787"><ele>15.52</ele><time>2015-08-26T10:14:09Z</time></trkpt><trkpt lat="52.0626046881" lon="-2.1245153155"><ele>15.04</ele><time>2015-08-26T10:14:11Z</time></trkpt><trkpt lat="52.0625823084" lon="-2.1244510263"><ele>14.56</ele><time>2015-08-26T10:14:15Z</time></trkpt><trkpt lat="52.0625129063" lon="-2.1243705601"><ele>14.08</ele><time>2015-08-26T10:14:28Z</time></trkpt><trkpt lat="52.0625087991" lon="-2.1243675426"><ele>14.56</ele><time>2015-08-26T10:14:43Z</time></trkpt><trkpt lat="52.0624572504" lon="-2.1243045945"><ele>15.04</ele><time>2015-08-26T10:14:59Z</time></trkpt><trkpt lat="52.0624570828" lon="-2.1243043430"><ele>15.04</ele><time>2015-08-26T10:15:00Z</time></trkpt><trkpt lat="52.0624067914" lon="-2.1242408082"><ele>14.56</ele><time>2015-08-26T10:15:17Z</time></trkpt><trkpt lat="52.0623958111" lon="-2.1242394671"><ele>15.52</ele><time>2015-08-26T10:15:36Z</time></trkpt><trkpt lat="52.0623794664" lon="-2.1243503597"><ele>15.52</ele><time>2015-08-26T10:15:56Z</time></trkpt><trkpt lat="52.0622901991" lon="-2.1244608331"><ele>15.52</ele><time>2015-08-26T10:16:10Z</time></trkpt><trkpt lat="52.0622823201" lon="-2.1244978812"><ele>16.00</ele><time>2015-08-26T10:16:29Z</time></trkpt><trkpt lat="52.0622918755" lon="-2.1244842187"><ele>15.04</ele><time>2015-08-26T10:16:50Z</time></trkpt><trkpt lat="52.0623228885" lon="-2.1244231146"><ele>15.52</ele><time>2015-08-26T10:17:14Z</time></trkpt><trkpt lat="52.0623251516" lon="-2.1244273894"><ele>15.04</ele><time>2015-08-26T10:17:36Z</time></trkpt><trkpt lat="52.0623229723" lon="-2.1244430635"><ele>15.04</ele><time>2015-08-26T10:17:59Z</time></trkpt><trkpt lat="52.0623221342" lon="-2.1244450752"><ele>15.04</ele><time>2015-08-26T10:18:16Z</time></trkpt><trkpt lat="52.0623163506" lon="-2.1244526189"><ele>15.04</ele><time>2015-08-26T10:18:33Z</time></trkpt><trkpt lat="52.0623139199" lon="-2.1244537085"><ele>14.56</ele><time>2015-08-26T10:18:48Z</time></trkpt><trkpt lat="52.0623254869" lon="-2.1244269703"><ele>14.08</ele><time>2015-08-26T10:19:06Z</time></trkpt><trkpt lat="52.0623255707" lon="-2.1244368609"><ele>14.08</ele><time>2015-08-26T10:19:26Z</time></trkpt><trkpt lat="52.0623283368" lon="-2.1244321670"><ele>14.56</ele><time>2015-08-26T10:19:49Z</time></trkpt><trkpt lat="52.0623335335" lon="-2.1244765911"><ele>14.56</ele><time>2015-08-26T10:20:04Z</time></trkpt><trkpt lat="52.0622982457" lon="-2.1245267149"><ele>14.08</ele><time>2015-08-26T10:20:19Z</time></trkpt><trkpt lat="52.0623119920" lon="-2.1244827099"><ele>14.56</ele><time>2015-08-26T10:20:43Z</time></trkpt><trkpt lat="52.0623171050" lon="-2.1244729031"><ele>14.08</ele><time>2015-08-26T10:20:48Z</time></trkpt><trkpt lat="52.0624064561" lon="-2.1243402176"><ele>13.60</ele><time>2015-08-26T10:21:00Z</time></trkpt><trkpt lat="52.0624218788" lon="-2.1242556442"><ele>13.60</ele><time>2015-08-26T10:21:15Z</time></trkpt><trkpt lat="52.0624239743" lon="-2.1242680494"><ele>14.56</ele><time>2015-08-26T10:21:39Z</time></trkpt><trkpt lat="52.0624241419" lon="-2.1242626011"><ele>13.60</ele><time>2015-08-26T10:21:58Z</time></trkpt><trkpt lat="52.0624343678" lon="-2.1242684685"><ele>14.08</ele><time>2015-08-26T10:22:14Z</time></trkpt><trkpt lat="52.0624238066" lon="-2.1242513694"><ele>14.08</ele><time>2015-08-26T10:22:35Z</time></trkpt><trkpt lat="52.0624172688" lon="-2.1242543031"><ele>13.60</ele><time>2015-08-26T10:22:59Z</time></trkpt><trkpt lat="52.0624134131" lon="-2.1242593322"><ele>13.60</ele><time>2015-08-26T10:23:32Z</time></trkpt><trkpt lat="52.0624171011" lon="-2.1242616791"><ele>13.60</ele><time>2015-08-26T10:23:56Z</time></trkpt><trkpt lat="52.0624094736" lon="-2.1243614238"><ele>14.08</ele><time>2015-08-26T10:24:15Z</time></trkpt><trkpt lat="52.0623762812" lon="-2.1243894193"><ele>13.12</ele><time>2015-08-26T10:24:30Z</time></trkpt><trkpt lat="52.0623815618" lon="-2.1243759245"><ele>13.12</ele><time>2015-08-26T10:24:55Z</time></trkpt><trkpt lat="52.0623812266" lon="-2.1243830491"><ele>14.08</ele><time>2015-08-26T10:25:19Z</time></trkpt><trkpt lat="52.0623819809" lon="-2.1243817080"><ele>13.60</ele><time>2015-08-26T10:25:46Z</time></trkpt><trkpt lat="52.0623800531" lon="-2.1243744157"><ele>14.56</ele><time>2015-08-26T10:26:13Z</time></trkpt><trkpt lat="52.0623857528" lon="-2.1243657824"><ele>14.08</ele><time>2015-08-26T10:26:42Z</time></trkpt><trkpt lat="52.0623882674" lon="-2.1243628487"><ele>14.08</ele><time>2015-08-26T10:27:14Z</time></trkpt><trkpt lat="52.0623874292" lon="-2.1243662015"><ele>14.08</ele><time>2015-08-26T10:27:44Z</time></trkpt><trkpt lat="52.0623897761" lon="-2.1243524551"><ele>13.60</ele><time>2015-08-26T10:28:08Z</time></trkpt><trkpt lat="52.0623873454" lon="-2.1243665367"><ele>13.60</ele><time>2015-08-26T10:28:31Z</time></trkpt><trkpt lat="52.0623963978" lon="-2.1243218612"><ele>13.12</ele><time>2015-08-26T10:28:52Z</time></trkpt><trkpt lat="52.0623984095" lon="-2.1242926922"><ele>12.63</ele><time>2015-08-26T10:28:58Z</time></trkpt><trkpt lat="52.0623907819" lon="-2.1242496930"><ele>13.60</ele><time>2015-08-26T10:29:12Z</time></trkpt><trkpt lat="52.0624000020" lon="-2.1243201010"><ele>13.60</ele><time>2015-08-26T10:29:33Z</time></trkpt><trkpt lat="52.0624086354" lon="-2.1243227832"><ele>14.08</ele><time>2015-08-26T10:29:55Z</time></trkpt><trkpt lat="52.0624123234" lon="-2.1243264712"><ele>14.08</ele><time>2015-08-26T10:30:19Z</time></trkpt><trkpt lat="52.0624174364" lon="-2.1243280638"><ele>14.08</ele><time>2015-08-26T10:30:45Z</time></trkpt><trkpt lat="52.0623962302" lon="-2.1243400499"><ele>14.08</ele><time>2015-08-26T10:31:03Z</time></trkpt><trkpt lat="52.0623974036" lon="-2.1243428998"><ele>13.60</ele><time>2015-08-26T10:31:22Z</time></trkpt><trkpt lat="52.0624819770" lon="-2.1244294010"><ele>13.60</ele><time>2015-08-26T10:31:35Z</time></trkpt><trkpt lat="52.0625274908" lon="-2.1245003957"><ele>13.60</ele><time>2015-08-26T10:31:40Z</time></trkpt><trkpt lat="52.0626568235" lon="-2.1248458140"><ele>12.63</ele><time>2015-08-26T10:31:56Z</time></trkpt><trkpt lat="52.0627502818" lon="-2.1250520088"><ele>13.60</ele><time>2015-08-26T10:32:07Z</time></trkpt><trkpt lat="52.0627801213" lon="-2.1252017934"><ele>14.08</ele><time>2015-08-26T10:32:22Z</time></trkpt><trkpt lat="52.0628170855" lon="-2.1252579521"><ele>14.08</ele><time>2015-08-26T10:32:35Z</time></trkpt><trkpt lat="52.0628281496" lon="-2.1252738778"><ele>15.04</ele><time>2015-08-26T10:32:55Z</time></trkpt><trkpt lat="52.0628547203" lon="-2.1252466366"><ele>13.60</ele><time>2015-08-26T10:33:19Z</time></trkpt><trkpt lat="52.0628455002" lon="-2.1252065711"><ele>13.60</ele><time>2015-08-26T10:33:34Z</time></trkpt><trkpt lat="52.0627677999" lon="-2.1249520965"><ele>13.60</ele><time>2015-08-26T10:33:48Z</time></trkpt><trkpt lat="52.0626361202" lon="-2.1247058362"><ele>13.12</ele><time>2015-08-26T10:34:04Z</time></trkpt><trkpt lat="52.0626213681" lon="-2.1246764157"><ele>13.60</ele><time>2015-08-26T10:34:06Z</time></trkpt><trkpt lat="52.0625212044" lon="-2.1244233660"><ele>13.60</ele><time>2015-08-26T10:34:20Z</time></trkpt><trkpt lat="52.0624681469" lon="-2.1243779361"><ele>13.60</ele><time>2015-08-26T10:34:30Z</time></trkpt><trkpt lat="52.0624165982" lon="-2.1243942808"><ele>13.12</ele><time>2015-08-26T10:34:35Z</time></trkpt><trkpt lat="52.0623771194" lon="-2.1244067699"><ele>13.60</ele><time>2015-08-26T10:34:53Z</time></trkpt><trkpt lat="52.0623683184" lon="-2.1244055126"><ele>13.60</ele><time>2015-08-26T10:35:16Z</time></trkpt><trkpt lat="52.0623571705" lon="-2.1244020760"><ele>13.60</ele><time>2015-08-26T10:35:44Z</time></trkpt><trkpt lat="52.0623356290" lon="-2.1244871523"><ele>13.60</ele><time>2015-08-26T10:36:08Z</time></trkpt><trkpt lat="52.0623551589" lon="-2.1244330890"><ele>12.63</ele><time>2015-08-26T10:36:21Z</time></trkpt><trkpt lat="52.0624056179" lon="-2.1243150719"><ele>13.12</ele><time>2015-08-26T10:36:33Z</time></trkpt><trkpt lat="52.0623755269" lon="-2.1243442409"><ele>13.12</ele><time>2015-08-26T10:36:52Z</time></trkpt><trkpt lat="52.0623642951" lon="-2.1243595798"><ele>13.12</ele><time>2015-08-26T10:37:15Z</time></trkpt><trkpt lat="52.0623637922" lon="-2.1243599989"><ele>13.12</ele><time>2015-08-26T10:37:41Z</time></trkpt><trkpt lat="52.0623629540" lon="-2.1243627649"><ele>9.75</ele><time>2015-08-26T10:37:54Z</time></trkpt><trkpt lat="52.0623627864" lon="-2.1243629325"><ele>14.56</ele><time>2015-08-26T10:37:55Z</time></trkpt><trkpt lat="52.0623626187" lon="-2.1243631002"><ele>20.81</ele><time>2015-08-26T10:37:56Z</time></trkpt><trkpt lat="52.0623612776" lon="-2.1243698057"><ele>13.12</ele><time>2015-08-26T10:37:57Z</time></trkpt><trkpt lat="52.0623603556" lon="-2.1243726555"><ele>13.12</ele><time>2015-08-26T10:38:20Z</time></trkpt><trkpt lat="52.0623577572" lon="-2.1243750863"><ele>13.12</ele><time>2015-08-26T10:38:45Z</time></trkpt><trkpt lat="52.0623523928" lon="-2.1243879944"><ele>12.63</ele><time>2015-08-26T10:39:10Z</time></trkpt><trkpt lat="52.0623399876" lon="-2.1243959572"><ele>13.12</ele><time>2015-08-26T10:39:34Z</time></trkpt><trkpt lat="52.0623455197" lon="-2.1244005673"><ele>13.12</ele><time>2015-08-26T10:39:57Z</time></trkpt><trkpt lat="52.0623466931" lon="-2.1243988909"><ele>0.62</ele><time>2015-08-26T10:40:01Z</time></trkpt><trkpt lat="52.0623474475" lon="-2.1243988071"><ele>16.00</ele><time>2015-08-26T10:40:02Z</time></trkpt><trkpt lat="52.0623478666" lon="-2.1243988071"><ele>7.83</ele><time>2015-08-26T10:40:03Z</time></trkpt><trkpt lat="52.0623482019" lon="-2.1243988071"><ele>12.63</ele><time>2015-08-26T10:40:04Z</time></trkpt><trkpt lat="52.0623477828" lon="-2.1243988071"><ele>16.00</ele><time>2015-08-26T10:40:07Z</time></trkpt><trkpt lat="52.0623480342" lon="-2.1243988071"><ele>12.63</ele><time>2015-08-26T10:40:09Z</time></trkpt><trkpt lat="52.0623440109" lon="-2.1243991423"><ele>13.12</ele><time>2015-08-26T10:40:29Z</time></trkpt><trkpt lat="52.0623470284" lon="-2.1243868209"><ele>13.12</ele><time>2015-08-26T10:40:50Z</time></trkpt><trkpt lat="52.0623528119" lon="-2.1243871562"><ele>13.12</ele><time>2015-08-26T10:41:17Z</time></trkpt><trkpt lat="52.0623575058" lon="-2.1243795287"><ele>12.63</ele><time>2015-08-26T10:41:44Z</time></trkpt><trkpt lat="52.0623639598" lon="-2.1243714821"><ele>12.63</ele><time>2015-08-26T10:42:11Z</time></trkpt><trkpt lat="52.0623527281" lon="-2.1243397985"><ele>13.12</ele><time>2015-08-26T10:42:28Z</time></trkpt><trkpt lat="52.0623749401" lon="-2.1243697219"><ele>12.63</ele><time>2015-08-26T10:42:48Z</time></trkpt><trkpt lat="52.0623698272" lon="-2.1243828814"><ele>12.15</ele><time>2015-08-26T10:43:16Z</time></trkpt><trkpt lat="52.0623776224" lon="-2.1243701410"><ele>12.63</ele><time>2015-08-26T10:43:41Z</time></trkpt><trkpt lat="52.0623840764" lon="-2.1243604179"><ele>12.15</ele><time>2015-08-26T10:44:03Z</time></trkpt><trkpt lat="52.0623797178" lon="-2.1243597474"><ele>12.15</ele><time>2015-08-26T10:44:36Z</time></trkpt><trkpt lat="52.0623747725" lon="-2.1243615914"><ele>12.15</ele><time>2015-08-26T10:45:05Z</time></trkpt><trkpt lat="52.0623777062" lon="-2.1243629325"><ele>12.15</ele><time>2015-08-26T10:45:36Z</time></trkpt><trkpt lat="52.0623763651" lon="-2.1243725717"><ele>12.63</ele><time>2015-08-26T10:46:06Z</time></trkpt><trkpt lat="52.0623749401" lon="-2.1243751701"><ele>12.63</ele><time>2015-08-26T10:46:30Z</time></trkpt><trkpt lat="52.0623948891" lon="-2.1243061032"><ele>12.15</ele><time>2015-08-26T10:46:45Z</time></trkpt><trkpt lat="52.0623901114" lon="-2.1242983080"><ele>12.15</ele><time>2015-08-26T10:47:01Z</time></trkpt><trkpt lat="52.0623689052" lon="-2.1243028343"><ele>11.67</ele><time>2015-08-26T10:47:22Z</time></trkpt><trkpt lat="52.0623387303" lon="-2.1243410558"><ele>12.15</ele><time>2015-08-26T10:47:43Z</time></trkpt><trkpt lat="52.0623682346" lon="-2.1243552212"><ele>12.15</ele><time>2015-08-26T10:48:06Z</time></trkpt><trkpt lat="52.0623699110" lon="-2.1243609209"><ele>11.67</ele><time>2015-08-26T10:48:31Z</time></trkpt><trkpt lat="52.0623824839" lon="-2.1243687999"><ele>12.15</ele><time>2015-08-26T10:48:56Z</time></trkpt><trkpt lat="52.0623803046" lon="-2.1243666206"><ele>12.15</ele><time>2015-08-26T10:49:22Z</time></trkpt><trkpt lat="52.0623809751" lon="-2.1243613400"><ele>12.63</ele><time>2015-08-26T10:49:46Z</time></trkpt><trkpt lat="52.0623890217" lon="-2.1242622659"><ele>11.67</ele><time>2015-08-26T10:50:05Z</time></trkpt><trkpt lat="52.0623969007" lon="-2.1242569014"><ele>12.15</ele><time>2015-08-26T10:50:27Z</time></trkpt><trkpt lat="52.0624017622" lon="-2.1242601704"><ele>12.15</ele><time>2015-08-26T10:50:48Z</time></trkpt><trkpt lat="52.0624582563" lon="-2.1242177580"><ele>12.63</ele><time>2015-08-26T10:50:58Z</time></trkpt><trkpt lat="52.0625860803" lon="-2.1240603458"><ele>12.63</ele><time>2015-08-26T10:51:15Z</time></trkpt><trkpt lat="52.0627038460" lon="-2.1238992456"><ele>12.63</ele><time>2015-08-26T10:51:30Z</time></trkpt><trkpt lat="52.0628265571" lon="-2.1237127483"><ele>12.63</ele><time>2015-08-26T10:51:47Z</time></trkpt><trkpt lat="52.0629630145" lon="-2.1235130914"><ele>11.67</ele><time>2015-08-26T10:52:05Z</time></trkpt><trkpt lat="52.0630216040" lon="-2.1233890392"><ele>11.19</ele><time>2015-08-26T10:52:15Z</time></trkpt><trkpt lat="52.0630902518" lon="-2.1233138535"><ele>12.15</ele><time>2015-08-26T10:52:24Z</time></trkpt><trkpt lat="52.0631561335" lon="-2.1232239157"><ele>11.67</ele><time>2015-08-26T10:52:32Z</time></trkpt><trkpt lat="52.0633324049" lon="-2.1229957603"><ele>12.15</ele><time>2015-08-26T10:52:50Z</time></trkpt><trkpt lat="52.0634475723" lon="-2.1228221711"><ele>11.67</ele><time>2015-08-26T10:53:06Z</time></trkpt><trkpt lat="52.0635976084" lon="-2.1226182394"><ele>11.67</ele><time>2015-08-26T10:53:22Z</time></trkpt><trkpt lat="52.0637313835" lon="-2.1224308200"><ele>10.71</ele><time>2015-08-26T10:53:38Z</time></trkpt><trkpt lat="52.0638850238" lon="-2.1221952885"><ele>11.67</ele><time>2015-08-26T10:53:56Z</time></trkpt><trkpt lat="52.0640059747" lon="-2.1220308356"><ele>11.19</ele><time>2015-08-26T10:54:12Z</time></trkpt><trkpt lat="52.0640001912" lon="-2.1220327634"><ele>11.19</ele><time>2015-08-26T10:54:36Z</time></trkpt><trkpt lat="52.0640060585" lon="-2.1220092103"><ele>11.67</ele><time>2015-08-26T10:54:56Z</time></trkpt><trkpt lat="52.0640349761" lon="-2.1219929494"><ele>11.19</ele><time>2015-08-26T10:55:06Z</time></trkpt><trkpt lat="52.0641264226" lon="-2.1218864992"><ele>11.19</ele><time>2015-08-26T10:55:15Z</time></trkpt><trkpt lat="52.0642848406" lon="-2.1218561567"><ele>11.67</ele><time>2015-08-26T10:55:32Z</time></trkpt><trkpt lat="52.0643145964" lon="-2.1218678914"><ele>11.19</ele><time>2015-08-26T10:55:35Z</time></trkpt><trkpt lat="52.0645490382" lon="-2.1219588351"><ele>11.67</ele><time>2015-08-26T10:55:57Z</time></trkpt><trkpt lat="52.0647117309" lon="-2.1219221223"><ele>11.19</ele><time>2015-08-26T10:56:16Z</time></trkpt><trkpt lat="52.0648880024" lon="-2.1219394729"><ele>10.71</ele><time>2015-08-26T10:56:34Z</time></trkpt><trkpt lat="52.0648983121" lon="-2.1219487768"><ele>11.19</ele><time>2015-08-26T10:56:57Z</time></trkpt><trkpt lat="52.0648988988" lon="-2.1219502017"><ele>-0.82</ele><time>2015-08-26T10:57:16Z</time></trkpt><trkpt lat="52.0648990665" lon="-2.1219502855"><ele>12.63</ele><time>2015-08-26T10:57:17Z</time></trkpt><trkpt lat="52.0648991503" lon="-2.1219502855"><ele>27.05</ele><time>2015-08-26T10:57:18Z</time></trkpt><trkpt lat="52.0648991503" lon="-2.1219503693"><ele>11.19</ele><time>2015-08-26T10:57:19Z</time></trkpt><trkpt lat="52.0648994017" lon="-2.1219504531"><ele>15.04</ele><time>2015-08-26T10:57:20Z</time></trkpt><trkpt lat="52.0648999047" lon="-2.1219505370"><ele>10.71</ele><time>2015-08-26T10:57:21Z</time></trkpt><trkpt lat="52.0649126451" lon="-2.1219139080"><ele>5.42</ele><time>2015-08-26T10:57:28Z</time></trkpt><trkpt lat="52.0649165846" lon="-2.1219069511"><ele>12.63</ele><time>2015-08-26T10:57:29Z</time></trkpt><trkpt lat="52.0649206080" lon="-2.1219023410"><ele>8.31</ele><time>2015-08-26T10:57:30Z</time></trkpt><trkpt lat="52.0649227034" lon="-2.1218959708"><ele>16.00</ele><time>2015-08-26T10:57:32Z</time></trkpt><trkpt lat="52.0649231225" lon="-2.1219005808"><ele>13.12</ele><time>2015-08-26T10:57:33Z</time></trkpt><trkpt lat="52.0649216138" lon="-2.1219006646"><ele>11.19</ele><time>2015-08-26T10:57:35Z</time></trkpt><trkpt lat="52.0649035927" lon="-2.1219248045"><ele>-7.55</ele><time>2015-08-26T10:57:50Z</time></trkpt><trkpt lat="52.0649038441" lon="-2.1219248883"><ele>31.86</ele><time>2015-08-26T10:57:51Z</time></trkpt><trkpt lat="52.0649035927" lon="-2.1219258942"><ele>11.67</ele><time>2015-08-26T10:57:52Z</time></trkpt><trkpt lat="52.0649023354" lon="-2.1219295822"><ele>10.23</ele><time>2015-08-26T10:57:54Z</time></trkpt><trkpt lat="52.0649016649" lon="-2.1219366230"><ele>13.60</ele><time>2015-08-26T10:58:08Z</time></trkpt><trkpt lat="52.0649005752" lon="-2.1219402272"><ele>10.23</ele><time>2015-08-26T10:58:17Z</time></trkpt><trkpt lat="52.0649007428" lon="-2.1219496150"><ele>15.52</ele><time>2015-08-26T10:58:32Z</time></trkpt><trkpt lat="52.0649009105" lon="-2.1219496988"><ele>11.19</ele><time>2015-08-26T10:58:33Z</time></trkpt><trkpt lat="52.0648986474" lon="-2.1219668817"><ele>6.87</ele><time>2015-08-26T10:58:41Z</time></trkpt><trkpt lat="52.0648986474" lon="-2.1219670493"><ele>10.71</ele><time>2015-08-26T10:58:42Z</time></trkpt><trkpt lat="52.0648985635" lon="-2.1219672170"><ele>2.54</ele><time>2015-08-26T10:58:47Z</time></trkpt><trkpt lat="52.0648983959" lon="-2.1219677199"><ele>11.67</ele><time>2015-08-26T10:58:48Z</time></trkpt><trkpt lat="52.0648981445" lon="-2.1219680551"><ele>15.04</ele><time>2015-08-26T10:58:50Z</time></trkpt><trkpt lat="52.0648980606" lon="-2.1219681390"><ele>-2.75</ele><time>2015-08-26T10:58:51Z</time></trkpt><trkpt lat="52.0648979768" lon="-2.1219682228"><ele>9.27</ele><time>2015-08-26T10:58:52Z</time></trkpt><trkpt lat="52.0648978092" lon="-2.1219682228"><ele>22.25</ele><time>2015-08-26T10:58:53Z</time></trkpt><trkpt lat="52.0648976415" lon="-2.1219684742"><ele>20.32</ele><time>2015-08-26T10:58:54Z</time></trkpt><trkpt lat="52.0648973901" lon="-2.1219692286"><ele>11.19</ele><time>2015-08-26T10:58:55Z</time></trkpt><trkpt lat="52.0648939535" lon="-2.1219688095"><ele>10.71</ele><time>2015-08-26T10:58:56Z</time></trkpt><trkpt lat="52.0648920257" lon="-2.1219652891"><ele>-15.24</ele><time>2015-08-26T10:59:09Z</time></trkpt><trkpt lat="52.0648922771" lon="-2.1219652053"><ele>36.67</ele><time>2015-08-26T10:59:10Z</time></trkpt><trkpt lat="52.0648922771" lon="-2.1219651215"><ele>12.63</ele><time>2015-08-26T10:59:11Z</time></trkpt><trkpt lat="52.0648926124" lon="-2.1219641995"><ele>10.71</ele><time>2015-08-26T10:59:13Z</time></trkpt><trkpt lat="52.0648935344" lon="-2.1219442505"><ele>11.19</ele><time>2015-08-26T10:59:20Z</time></trkpt><trkpt lat="52.0648947917" lon="-2.1219466813"><ele>10.71</ele><time>2015-08-26T10:59:45Z</time></trkpt><trkpt lat="52.0648951270" lon="-2.1219447535"><ele>-12.36</ele><time>2015-08-26T10:59:50Z</time></trkpt><trkpt lat="52.0648952108" lon="-2.1219443344"><ele>17.44</ele><time>2015-08-26T10:59:51Z</time></trkpt><trkpt lat="52.0648954622" lon="-2.1219440829"><ele>12.15</ele><time>2015-08-26T10:59:52Z</time></trkpt><trkpt lat="52.0648957975" lon="-2.1219438314"><ele>11.19</ele><time>2015-08-26T10:59:54Z</time></trkpt><trkpt lat="52.0648902655" lon="-2.1219583321"><ele>11.19</ele><time>2015-08-26T11:00:17Z</time></trkpt><trkpt lat="52.0649015810" lon="-2.1219524648"><ele>10.23</ele><time>2015-08-26T11:00:42Z</time></trkpt><trkpt lat="52.0649646968" lon="-2.1219256427"><ele>10.23</ele><time>2015-08-26T11:01:01Z</time></trkpt><trkpt lat="52.0650517847" lon="-2.1219354495"><ele>10.23</ele><time>2015-08-26T11:01:19Z</time></trkpt><trkpt lat="52.0651029982" lon="-2.1219645347"><ele>10.71</ele><time>2015-08-26T11:01:37Z</time></trkpt><trkpt lat="52.0652496815" lon="-2.1220175922"><ele>10.71</ele><time>2015-08-26T11:01:55Z</time></trkpt><trkpt lat="52.0653930958" lon="-2.1220346075"><ele>10.23</ele><time>2015-08-26T11:02:13Z</time></trkpt><trkpt lat="52.0655868854" lon="-2.1219880041"><ele>11.19</ele><time>2015-08-26T11:02:33Z</time></trkpt><trkpt lat="52.0656409487" lon="-2.1218866669"><ele>10.71</ele><time>2015-08-26T11:02:41Z</time></trkpt><trkpt lat="52.0657261927" lon="-2.1216995828"><ele>11.19</ele><time>2015-08-26T11:02:56Z</time></trkpt><trkpt lat="52.0657313056" lon="-2.1216822322"><ele>11.19</ele><time>2015-08-26T11:02:57Z</time></trkpt><trkpt lat="52.0657577086" lon="-2.1215799730"><ele>11.67</ele><time>2015-08-26T11:03:18Z</time></trkpt><trkpt lat="52.0658055693" lon="-2.1214610338"><ele>11.67</ele><time>2015-08-26T11:03:29Z</time></trkpt><trkpt lat="52.0658139512" lon="-2.1214231476"><ele>11.67</ele><time>2015-08-26T11:03:31Z</time></trkpt><trkpt lat="52.0658214949" lon="-2.1213681623"><ele>11.67</ele><time>2015-08-26T11:03:34Z</time></trkpt><trkpt lat="52.0658432040" lon="-2.1213181224"><ele>11.19</ele><time>2015-08-26T11:03:37Z</time></trkpt><trkpt lat="52.0658644103" lon="-2.1212508995"><ele>12.15</ele><time>2015-08-26T11:03:53Z</time></trkpt><trkpt lat="52.0658680983" lon="-2.1212541685"><ele>11.19</ele><time>2015-08-26T11:03:55Z</time></trkpt><trkpt lat="52.0658767316" lon="-2.1212366503"><ele>12.15</ele><time>2015-08-26T11:03:57Z</time></trkpt><trkpt lat="52.0658907294" lon="-2.1211737860"><ele>12.15</ele><time>2015-08-26T11:04:12Z</time></trkpt><trkpt lat="52.0658936631" lon="-2.1211622190"><ele>11.67</ele><time>2015-08-26T11:04:32Z</time></trkpt><trkpt lat="52.0658875443" lon="-2.1211644821"><ele>11.67</ele><time>2015-08-26T11:05:01Z</time></trkpt><trkpt lat="52.0659037214" lon="-2.1211222373"><ele>12.63</ele><time>2015-08-26T11:05:23Z</time></trkpt><trkpt lat="52.0659188088" lon="-2.1210427769"><ele>12.15</ele><time>2015-08-26T11:05:35Z</time></trkpt><trkpt lat="52.0660564397" lon="-2.1207375079"><ele>16.00</ele><time>2015-08-26T11:05:54Z</time></trkpt><trkpt lat="52.0660636481" lon="-2.1207216661"><ele>12.63</ele><time>2015-08-26T11:05:55Z</time></trkpt><trkpt lat="52.0661041327" lon="-2.1206380986"><ele>16.00</ele><time>2015-08-26T11:06:02Z</time></trkpt><trkpt lat="52.0662126783" lon="-2.1205395274"><ele>14.08</ele><time>2015-08-26T11:06:15Z</time></trkpt><trkpt lat="52.0662347227" lon="-2.1205327380"><ele>16.96</ele><time>2015-08-26T11:06:17Z</time></trkpt><trkpt lat="52.0663954876" lon="-2.1204252820"><ele>17.44</ele><time>2015-08-26T11:06:35Z</time></trkpt><trkpt lat="52.0664190408" lon="-2.1203862224"><ele>16.48</ele><time>2015-08-26T11:06:52Z</time></trkpt><trkpt lat="52.0664271712" lon="-2.1203811932"><ele>19.36</ele><time>2015-08-26T11:06:56Z</time></trkpt><trkpt lat="52.0665782969" lon="-2.1202076040"><ele>17.92</ele><time>2015-08-26T11:07:11Z</time></trkpt><trkpt lat="52.0666574221" lon="-2.1200412232"><ele>16.96</ele><time>2015-08-26T11:07:23Z</time></trkpt><trkpt lat="52.0667189453" lon="-2.1198794525"><ele>18.40</ele><time>2015-08-26T11:07:40Z</time></trkpt><trkpt lat="52.0667558257" lon="-2.1198016685"><ele>17.92</ele><time>2015-08-26T11:07:56Z</time></trkpt><trkpt lat="52.0667921193" lon="-2.1197392233"><ele>17.44</ele><time>2015-08-26T11:08:04Z</time></trkpt><trkpt lat="52.0668186899" lon="-2.1197157539"><ele>17.44</ele><time>2015-08-26T11:08:07Z</time></trkpt><trkpt lat="52.0668392256" lon="-2.1196643729"><ele>17.92</ele><time>2015-08-26T11:08:11Z</time></trkpt><trkpt lat="52.0669792034" lon="-2.1194600221"><ele>17.92</ele><time>2015-08-26T11:08:27Z</time></trkpt><trkpt lat="52.0671403036" lon="-2.1192207187"><ele>17.92</ele><time>2015-08-26T11:08:47Z</time></trkpt><trkpt lat="52.0672738273" lon="-2.1189752966"><ele>18.40</ele><time>2015-08-26T11:09:04Z</time></trkpt><trkpt lat="52.0674232766" lon="-2.1186853666"><ele>18.40</ele><time>2015-08-26T11:09:24Z</time></trkpt><trkpt lat="52.0675253682" lon="-2.1184584685"><ele>19.84</ele><time>2015-08-26T11:09:42Z</time></trkpt><trkpt lat="52.0675804373" lon="-2.1183649264"><ele>19.36</ele><time>2015-08-26T11:09:55Z</time></trkpt><trkpt lat="52.0675226022" lon="-2.1183264535"><ele>20.32</ele><time>2015-08-26T11:10:17Z</time></trkpt><trkpt lat="52.0675149746" lon="-2.1183253638"><ele>19.36</ele><time>2015-08-26T11:10:46Z</time></trkpt><trkpt lat="52.0675764978" lon="-2.1183221787"><ele>18.40</ele><time>2015-08-26T11:11:13Z</time></trkpt><trkpt lat="52.0677215885" lon="-2.1182005573"><ele>18.88</ele><time>2015-08-26T11:11:29Z</time></trkpt><trkpt lat="52.0679267775" lon="-2.1180896647"><ele>18.88</ele><time>2015-08-26T11:11:47Z</time></trkpt><trkpt lat="52.0680944156" lon="-2.1179599129"><ele>19.84</ele><time>2015-08-26T11:12:04Z</time></trkpt><trkpt lat="52.0682146121" lon="-2.1178416442"><ele>19.36</ele><time>2015-08-26T11:12:17Z</time></trkpt><trkpt lat="52.0682585333" lon="-2.1178093739"><ele>19.36</ele><time>2015-08-26T11:12:21Z</time></trkpt><trkpt lat="52.0683040470" lon="-2.1177652013"><ele>19.36</ele><time>2015-08-26T11:12:26Z</time></trkpt><trkpt lat="52.0684261713" lon="-2.1176098008"><ele>19.36</ele><time>2015-08-26T11:12:40Z</time></trkpt><trkpt lat="52.0684910472" lon="-2.1175736748"><ele>20.32</ele><time>2015-08-26T11:12:46Z</time></trkpt><trkpt lat="52.0686208829" lon="-2.1173550747"><ele>19.84</ele><time>2015-08-26T11:13:04Z</time></trkpt><trkpt lat="52.0686404966" lon="-2.1173149254"><ele>19.84</ele><time>2015-08-26T11:13:07Z</time></trkpt><trkpt lat="52.0687726792" lon="-2.1170790587"><ele>19.36</ele><time>2015-08-26T11:13:25Z</time></trkpt><trkpt lat="52.0688641258" lon="-2.1168493945"><ele>19.84</ele><time>2015-08-26T11:13:42Z</time></trkpt><trkpt lat="52.0688768663" lon="-2.1168102510"><ele>19.84</ele><time>2015-08-26T11:13:53Z</time></trkpt><trkpt lat="52.0689138304" lon="-2.1167649049"><ele>19.84</ele><time>2015-08-26T11:13:57Z</time></trkpt><trkpt lat="52.0690743439" lon="-2.1165290382"><ele>19.36</ele><time>2015-08-26T11:14:15Z</time></trkpt><trkpt lat="52.0691413991" lon="-2.1163158026"><ele>18.88</ele><time>2015-08-26T11:14:31Z</time></trkpt><trkpt lat="52.0692368690" lon="-2.1161472425"><ele>19.84</ele><time>2015-08-26T11:14:44Z</time></trkpt><trkpt lat="52.0692580752" lon="-2.1160242800"><ele>19.84</ele><time>2015-08-26T11:14:51Z</time></trkpt><trkpt lat="52.0692928601" lon="-2.1158114634"><ele>20.32</ele><time>2015-08-26T11:15:07Z</time></trkpt><trkpt lat="52.0692900941" lon="-2.1157712303"><ele>23.69</ele><time>2015-08-26T11:15:13Z</time></trkpt><trkpt lat="52.0692953747" lon="-2.1157482639"><ele>17.44</ele><time>2015-08-26T11:15:15Z</time></trkpt><trkpt lat="52.0692985598" lon="-2.1157371160"><ele>20.32</ele><time>2015-08-26T11:15:16Z</time></trkpt><trkpt lat="52.0693002362" lon="-2.1157264709"><ele>26.57</ele><time>2015-08-26T11:15:18Z</time></trkpt><trkpt lat="52.0693002362" lon="-2.1157164127"><ele>26.57</ele><time>2015-08-26T11:15:19Z</time></trkpt><trkpt lat="52.0692995656" lon="-2.1157071926"><ele>25.13</ele><time>2015-08-26T11:15:21Z</time></trkpt><trkpt lat="52.0693119708" lon="-2.1156649478"><ele>25.13</ele><time>2015-08-26T11:15:45Z</time></trkpt><trkpt lat="52.0693052653" lon="-2.1156431548"><ele>25.61</ele><time>2015-08-26T11:16:02Z</time></trkpt><trkpt lat="52.0693089534" lon="-2.1156403888"><ele>25.13</ele><time>2015-08-26T11:16:21Z</time></trkpt><trkpt lat="52.0693247113" lon="-2.1155941207"><ele>24.65</ele><time>2015-08-26T11:16:45Z</time></trkpt><trkpt lat="52.0693373680" lon="-2.1155903488"><ele>21.77</ele><time>2015-08-26T11:17:03Z</time></trkpt><trkpt lat="52.0693390444" lon="-2.1155905165"><ele>20.32</ele><time>2015-08-26T11:17:08Z</time></trkpt><trkpt lat="52.0693864860" lon="-2.1154339425"><ele>20.32</ele><time>2015-08-26T11:17:22Z</time></trkpt><trkpt lat="52.0694721490" lon="-2.1153396461"><ele>20.32</ele><time>2015-08-26T11:17:29Z</time></trkpt><trkpt lat="52.0695713907" lon="-2.1150482073"><ele>21.29</ele><time>2015-08-26T11:17:47Z</time></trkpt><trkpt lat="52.0695998054" lon="-2.1149650589"><ele>20.81</ele><time>2015-08-26T11:17:53Z</time></trkpt><trkpt lat="52.0696752425" lon="-2.1147715207"><ele>21.29</ele><time>2015-08-26T11:18:08Z</time></trkpt><trkpt lat="52.0697801840" lon="-2.1146574430"><ele>21.77</ele><time>2015-08-26T11:18:21Z</time></trkpt><trkpt lat="52.0698574651" lon="-2.1147183795"><ele>21.29</ele><time>2015-08-26T11:18:36Z</time></trkpt><trkpt lat="52.0698565431" lon="-2.1147169545"><ele>14.08</ele><time>2015-08-26T11:18:47Z</time></trkpt><trkpt lat="52.0698567107" lon="-2.1147151105"><ele>22.25</ele><time>2015-08-26T11:18:48Z</time></trkpt><trkpt lat="52.0698597282" lon="-2.1147169545"><ele>22.25</ele><time>2015-08-26T11:18:51Z</time></trkpt></trkseg></trk></gpx>